sensor_id;sensor_type;location;lat;lon;timestamp;pressure;altitude;pressure_sealevel;temperature;humidity
69766;BME280;57039;48.014;21.384;2022-12-18T00:01:50;102055.53;;;-0.45;100.00
69766;BME280;57039;48.014;21.384;2022-12-18T00:02:53;102051.22;;;-0.48;100.00
69766;BME280;57039;48.014;21.384;2022-12-18T04:07:06;102370.81;;;-1.63;100.00
69766;BME280;57039;48.014;21.384;2022-12-18T04:08:12;102372.53;;;-1.62;100.00
69766;BME280;57039;48.014;21.384;2022-12-18T04:09:17;102373.44;;;-1.61;100.00
69766;BME280;57039;48.014;21.384;2022-12-18T04:10:20;102320.25;;;-1.95;100.00
69766;BME280;57039;48.014;21.384;2022-12-18T04:11:24;102374.22;;;-1.64;100.00
69766;BME280;57039;48.014;21.384;2022-12-18T04:12:29;102374.22;;;-1.64;100.00
69766;BME280;57039;48.014;21.384;2022-12-18T04:13:35;102369.00;;;-1.67;100.00
69766;BME280;57039;48.014;21.384;2022-12-18T04:14:40;102382.72;;;-1.66;100.00
69766;BME280;57039;48.014;21.384;2022-12-18T04:15:43;102386.16;;;-1.67;100.00
69766;BME280;57039;48.014;21.384;2022-12-18T04:16:48;102388.66;;;-1.69;100.00
69766;BME280;57039;48.014;21.384;2022-12-18T04:17:51;102392.16;;;-1.67;100.00
69766;BME280;57039;48.014;21.384;2022-12-18T04:18:55;102398.88;;;-1.72;100.00
69766;BME280;57039;48.014;21.384;2022-12-18T04:19:58;102389.44;;;-1.73;100.00
69766;BME280;57039;48.014;21.384;2022-12-18T04:21:02;102390.31;;;-1.71;100.00
69766;BME280;57039;48.014;21.384;2022-12-18T04:22:05;102388.56;;;-1.73;100.00
69766;BME280;57039;48.014;21.384;2022-12-18T04:23:08;102391.91;;;-1.76;100.00
69766;BME280;57039;48.014;21.384;2022-12-18T04:24:12;102394.50;;;-1.76;100.00
69766;BME280;57039;48.014;21.384;2022-12-18T04:25:16;102394.53;;;-1.74;100.00
69766;BME280;57039;48.014;21.384;2022-12-18T04:26:21;102399.72;;;-1.73;100.00
69766;BME280;57039;48.014;21.384;2022-12-18T04:27:25;102391.84;;;-1.79;100.00
69766;BME280;57039;48.014;21.384;2022-12-18T04:28:28;102405.75;;;-1.71;100.00
69766;BME280;57039;48.014;21.384;2022-12-18T04:29:32;102408.31;;;-1.72;100.00
69766;BME280;57039;48.014;21.384;2022-12-18T04:30:36;102402.16;;;-1.77;100.00
69766;BME280;57039;48.014;21.384;2022-12-18T04:31:39;102404.97;;;-1.68;100.00
69766;BME280;57039;48.014;21.384;2022-12-18T04:32:42;102408.25;;;-1.74;100.00
69766;BME280;57039;48.014;21.384;2022-12-18T04:33:51;102402.22;;;-1.76;100.00
69766;BME280;57039;48.014;21.384;2022-12-18T04:34:55;102409.94;;;-1.74;100.00
69766;BME280;57039;48.014;21.384;2022-12-18T04:35:58;102411.66;;;-1.75;100.00
69766;BME280;57039;48.014;21.384;2022-12-18T04:37:02;102415.97;;;-1.74;100.00
69766;BME280;57039;48.014;21.384;2022-12-18T04:38:06;102412.53;;;-1.74;100.00
69766;BME280;57039;48.014;21.384;2022-12-18T04:39:11;102414.31;;;-1.72;100.00
69766;BME280;57039;48.014;21.384;2022-12-18T04:40:20;102415.16;;;-1.73;100.00
69766;BME280;57039;48.014;21.384;2022-12-18T04:41:23;102417.72;;;-1.73;100.00
69766;BME280;57039;48.014;21.384;2022-12-18T04:42:26;102418.59;;;-1.72;100.00
69766;BME280;57039;48.014;21.384;2022-12-18T04:43:29;102426.34;;;-1.71;100.00
69766;BME280;57039;48.014;21.384;2022-12-18T04:44:32;102424.59;;;-1.72;100.00
69766;BME280;57039;48.014;21.384;2022-12-18T04:45:35;102421.09;;;-1.75;100.00
69766;BME280;57039;48.014;21.384;2022-12-18T04:46:38;102427.97;;;-1.74;100.00
69766;BME280;57039;48.014;21.384;2022-12-18T04:47:41;102427.97;;;-1.74;100.00
69766;BME280;57039;48.014;21.384;2022-12-18T04:48:45;102437.38;;;-1.75;100.00
69766;BME280;57039;48.014;21.384;2022-12-18T04:49:49;102433.87;;;-1.77;100.00
69766;BME280;57039;48.014;21.384;2022-12-18T04:50:53;102430.44;;;-1.79;100.00
69766;BME280;57039;48.014;21.384;2022-12-18T04:51:55;102429.50;;;-1.81;100.00
69766;BME280;57039;48.014;21.384;2022-12-18T04:52:58;102429.44;;;-1.84;100.00
69766;BME280;57039;48.014;21.384;2022-12-18T04:54:01;102425.16;;;-1.84;100.00
69766;BME280;57039;48.014;21.384;2022-12-18T04:55:04;102432.00;;;-1.84;100.00
69766;BME280;57039;48.014;21.384;2022-12-18T04:56:10;102429.38;;;-1.86;100.00
69766;BME280;57039;48.014;21.384;2022-12-18T04:57:13;102443.94;;;-1.86;100.00
69766;BME280;57039;48.014;21.384;2022-12-18T04:58:16;102437.06;;;-1.87;100.00
69766;BME280;57039;48.014;21.384;2022-12-18T04:59:19;102449.00;;;-1.89;100.00
69766;BME280;57039;48.014;21.384;2022-12-18T05:00:23;102445.53;;;-1.91;100.00
69766;BME280;57039;48.014;21.384;2022-12-18T05:01:26;102448.09;;;-1.91;100.00
69766;BME280;57039;48.014;21.384;2022-12-18T05:02:36;102445.44;;;-1.94;100.00
69766;BME280;57039;48.014;21.384;2022-12-18T05:03:39;102446.25;;;-1.95;100.00
69766;BME280;57039;48.014;21.384;2022-12-18T05:04:43;102451.31;;;-1.98;100.00
69766;BME280;57039;48.014;21.384;2022-12-18T05:05:49;102454.81;;;-1.96;100.00
69766;BME280;57039;48.014;21.384;2022-12-18T05:06:53;102463.44;;;-1.94;100.00
69766;BME280;57039;48.014;21.384;2022-12-18T05:07:56;102462.59;;;-1.93;100.00
69766;BME280;57039;48.014;21.384;2022-12-18T05:08:59;102471.25;;;-1.91;100.00
69766;BME280;57039;48.014;21.384;2022-12-18T05:10:03;102461.75;;;-1.94;100.00
69766;BME280;57039;48.014;21.384;2022-12-18T05:11:10;102464.31;;;-1.94;100.00
69766;BME280;57039;48.014;21.384;2022-12-18T05:12:14;102468.62;;;-1.93;100.00
69766;BME280;57039;48.014;21.384;2022-12-18T05:13:16;102471.97;;;-1.95;100.00
69766;BME280;57039;48.014;21.384;2022-12-18T05:14:20;102471.19;;;-1.93;100.00
69766;BME280;57039;48.014;21.384;2022-12-18T05:15:22;102472.03;;;-1.94;100.00
69766;BME280;57039;48.014;21.384;2022-12-18T05:16:25;102472.91;;;-1.93;100.00
69766;BME280;57039;48.014;21.384;2022-12-18T05:17:28;102475.50;;;-1.92;100.00
69766;BME280;57039;48.014;21.384;2022-12-18T05:18:31;102477.19;;;-1.92;100.00
69766;BME280;57039;48.014;21.384;2022-12-18T05:19:34;102478.88;;;-1.94;100.00
69766;BME280;57039;48.014;21.384;2022-12-18T05:20:37;102476.34;;;-1.93;100.00
69766;BME280;57039;48.014;21.384;2022-12-18T05:21:40;102484.09;;;-1.91;100.00
69766;BME280;57039;48.014;21.384;2022-12-18T05:22:43;102488.44;;;-1.89;100.00
69766;BME280;57039;48.014;21.384;2022-12-18T05:23:45;102493.56;;;-1.90;100.00
69766;BME280;57039;48.014;21.384;2022-12-18T05:24:48;102493.66;;;-1.87;100.00
69766;BME280;57039;48.014;21.384;2022-12-18T05:25:59;102495.28;;;-1.89;100.00
69766;BME280;57039;48.014;21.384;2022-12-18T05:27:02;102496.22;;;-1.87;100.00
69766;BME280;57039;48.014;21.384;2022-12-18T05:28:06;102497.87;;;-1.89;100.00
69766;BME280;57039;48.014;21.384;2022-12-18T05:29:09;102492.72;;;-1.89;100.00
69766;BME280;57039;48.014;21.384;2022-12-18T05:30:16;102496.12;;;-1.90;100.00
69766;BME280;57039;48.014;21.384;2022-12-18T05:31:19;102493.47;;;-1.93;100.00
69766;BME280;57039;48.014;21.384;2022-12-18T05:32:22;102493.47;;;-1.93;100.00
69766;BME280;57039;48.014;21.384;2022-12-18T05:33:27;102496.91;;;-1.93;100.00
69766;BME280;57039;48.014;21.384;2022-12-18T05:34:31;102501.22;;;-1.92;100.00
69766;BME280;57039;48.014;21.384;2022-12-18T05:35:33;102445.41;;;-2.24;100.00
69766;BME280;57039;48.014;21.384;2022-12-18T05:36:36;102502.84;;;-1.95;100.00
69766;BME280;57039;48.014;21.384;2022-12-18T05:37:39;102491.66;;;-1.97;100.00
69766;BME280;57039;48.014;21.384;2022-12-18T05:38:45;102509.59;;;-1.99;100.00
69766;BME280;57039;48.014;21.384;2022-12-18T05:39:48;102505.31;;;-1.98;100.00
69766;BME280;57039;48.014;21.384;2022-12-18T05:40:51;102513.88;;;-1.99;100.00
69766;BME280;57039;48.014;21.384;2022-12-18T05:41:55;102512.91;;;-2.03;100.00
69766;BME280;57039;48.014;21.384;2022-12-18T05:42:57;102517.28;;;-2.00;100.00
69766;BME280;57039;48.014;21.384;2022-12-18T05:44:01;102516.97;;;-2.10;100.00
69766;BME280;57039;48.014;21.384;2022-12-18T05:45:05;102519.47;;;-2.13;100.00
69766;BME280;57039;48.014;21.384;2022-12-18T05:46:12;102527.09;;;-2.16;100.00
69766;BME280;57039;48.014;21.384;2022-12-18T05:47:15;102520.22;;;-2.17;100.00
69766;BME280;57039;48.014;21.384;2022-12-18T05:48:18;102524.56;;;-2.14;100.00
69766;BME280;57039;48.014;21.384;2022-12-18T05:49:22;102515.16;;;-2.14;100.00
69766;BME280;57039;48.014;21.384;2022-12-18T05:50:25;102527.09;;;-2.16;100.00
69766;BME280;57039;48.014;21.384;2022-12-18T05:51:27;102526.19;;;-2.18;100.00
69766;BME280;57039;48.014;21.384;2022-12-18T05:52:30;102532.97;;;-2.20;100.00
69766;BME280;57039;48.014;21.384;2022-12-18T05:53:33;102526.13;;;-2.19;100.00
69766;BME280;57039;48.014;21.384;2022-12-18T05:54:37;102529.56;;;-2.19;100.00
69766;BME280;57039;48.014;21.384;2022-12-18T05:55:41;102530.47;;;-2.18;100.00
69766;BME280;57039;48.014;21.384;2022-12-18T05:56:45;102537.44;;;-2.14;100.00
69766;BME280;57039;48.014;21.384;2022-12-18T05:57:50;102535.72;;;-2.14;100.00
69766;BME280;57039;48.014;21.384;2022-12-18T05:58:54;102534.09;;;-2.12;100.00
69766;BME280;57039;48.014;21.384;2022-12-18T05:59:57;102529.84;;;-2.10;100.00
69766;BME280;57039;48.014;21.384;2022-12-18T06:01:12;102541.75;;;-2.13;100.00
69766;BME280;57039;48.014;21.384;2022-12-18T06:02:15;102540.00;;;-2.14;100.00
69766;BME280;57039;48.014;21.384;2022-12-18T06:03:18;102539.13;;;-2.15;100.00
69766;BME280;57039;48.014;21.384;2022-12-18T06:04:22;102542.56;;;-2.14;100.00
69766;BME280;57039;48.014;21.384;2022-12-18T06:05:25;102551.94;;;-2.16;100.00
69766;BME280;57039;48.014;21.384;2022-12-18T06:06:28;102543.41;;;-2.15;100.00
69766;BME280;57039;48.014;21.384;2022-12-18T06:07:31;102549.34;;;-2.16;100.00
69766;BME280;57039;48.014;21.384;2022-12-18T06:08:34;102551.13;;;-2.15;100.00
69766;BME280;57039;48.014;21.384;2022-12-18T06:09:37;102547.63;;;-2.17;100.00
69766;BME280;57039;48.014;21.384;2022-12-18T06:10:41;102556.97;;;-2.19;100.00
69766;BME280;57039;48.014;21.384;2022-12-18T06:11:43;102556.13;;;-2.20;100.00
69766;BME280;57039;48.014;21.384;2022-12-18T06:12:46;102566.50;;;-2.17;100.00
69766;BME280;57039;48.014;21.384;2022-12-18T06:13:51;102564.75;;;-2.18;100.00
69766;BME280;57039;48.014;21.384;2022-12-18T06:15:00;102560.31;;;-2.22;100.00
69766;BME280;57039;48.014;21.384;2022-12-18T06:16:07;102559.63;;;-2.18;100.00
69766;BME280;57039;48.014;21.384;2022-12-18T06:17:11;102570.88;;;-2.13;100.00
69766;BME280;57039;48.014;21.384;2022-12-18T06:18:14;102570.84;;;-2.14;100.00
69766;BME280;57039;48.014;21.384;2022-12-18T06:19:17;102576.00;;;-2.14;100.00
69766;BME280;57039;48.014;21.384;2022-12-18T06:20:20;102501.91;;;-2.55;100.00
69766;BME280;57039;48.014;21.384;2022-12-18T06:21:23;102582.00;;;-2.14;100.00
69766;BME280;57039;48.014;21.384;2022-12-18T06:22:26;102565.66;;;-2.16;100.00
69766;BME280;57039;48.014;21.384;2022-12-18T06:23:30;102573.38;;;-2.16;100.00
69766;BME280;57039;48.014;21.384;2022-12-18T06:24:33;102581.06;;;-2.16;100.00
69766;BME280;57039;48.014;21.384;2022-12-18T06:25:38;102567.25;;;-2.19;100.00
69766;BME280;57039;48.014;21.384;2022-12-18T06:26:41;102573.28;;;-2.19;100.00
69766;BME280;57039;48.014;21.384;2022-12-18T06:27:43;102574.28;;;-2.14;100.00
69766;BME280;57039;48.014;21.384;2022-12-18T06:28:47;102577.78;;;-2.12;100.00
69766;BME280;57039;48.014;21.384;2022-12-18T06:29:50;102583.84;;;-2.10;100.00
69766;BME280;57039;48.014;21.384;2022-12-18T06:30:53;102582.06;;;-2.12;100.00
69766;BME280;57039;48.014;21.384;2022-12-18T06:31:56;102583.84;;;-2.10;100.00
69766;BME280;57039;48.014;21.384;2022-12-18T06:32:59;102582.09;;;-2.11;100.00
69766;BME280;57039;48.014;21.384;2022-12-18T06:34:04;102577.72;;;-2.13;100.00
69766;BME280;57039;48.014;21.384;2022-12-18T06:35:08;102590.75;;;-2.09;100.00
69766;BME280;57039;48.014;21.384;2022-12-18T06:36:12;102583.94;;;-2.07;100.00
69766;BME280;57039;48.014;21.384;2022-12-18T06:37:15;102585.72;;;-2.04;100.00
69766;BME280;57039;48.014;21.384;2022-12-18T06:38:18;102584.16;;;-2.00;100.00
69766;BME280;57039;48.014;21.384;2022-12-18T06:39:21;102585.87;;;-1.99;100.00
69766;BME280;57039;48.014;21.384;2022-12-18T06:40:24;102587.62;;;-1.98;100.00
69766;BME280;57039;48.014;21.384;2022-12-18T06:41:27;102585.13;;;-1.95;100.00
69766;BME280;57039;48.014;21.384;2022-12-18T06:42:30;102586.09;;;-1.92;100.00
69766;BME280;57039;48.014;21.384;2022-12-18T06:43:32;102582.66;;;-1.92;100.00
69766;BME280;57039;48.014;21.384;2022-12-18T06:44:36;102579.88;;;-2.00;100.00
69766;BME280;57039;48.014;21.384;2022-12-18T06:45:38;102587.84;;;-1.91;100.00
69766;BME280;57039;48.014;21.384;2022-12-18T06:46:41;102581.09;;;-1.87;100.00
69766;BME280;57039;48.014;21.384;2022-12-18T06:47:44;102593.13;;;-1.86;100.00
69766;BME280;57039;48.014;21.384;2022-12-18T06:48:48;102589.75;;;-1.85;100.00
69766;BME280;57039;48.014;21.384;2022-12-18T06:49:52;102596.72;;;-1.81;100.00
69766;BME280;57039;48.014;21.384;2022-12-18T06:50:55;102594.97;;;-1.82;100.00
69766;BME280;57039;48.014;21.384;2022-12-18T06:51:57;102599.22;;;-1.83;100.00
69766;BME280;57039;48.014;21.384;2022-12-18T06:53:00;102604.50;;;-1.78;100.00
69766;BME280;57039;48.014;21.384;2022-12-18T06:54:04;102601.06;;;-1.78;100.00
69766;BME280;57039;48.014;21.384;2022-12-18T06:55:07;102602.69;;;-1.82;100.00
69766;BME280;57039;48.014;21.384;2022-12-18T06:56:11;102606.91;;;-1.84;100.00
69766;BME280;57039;48.014;21.384;2022-12-18T06:57:14;102610.44;;;-1.80;100.00
69766;BME280;57039;48.014;21.384;2022-12-18T06:58:18;102609.72;;;-1.76;100.00
69766;BME280;57039;48.014;21.384;2022-12-18T06:59:20;102606.31;;;-1.75;100.00
69766;BME280;57039;48.014;21.384;2022-12-18T07:00:23;102605.44;;;-1.76;100.00
69766;BME280;57039;48.014;21.384;2022-12-18T07:01:27;102607.25;;;-1.73;100.00
69766;BME280;57039;48.014;21.384;2022-12-18T07:02:30;102611.47;;;-1.75;100.00
69766;BME280;57039;48.014;21.384;2022-12-18T07:03:33;102620.03;;;-1.75;100.00
69766;BME280;57039;48.014;21.384;2022-12-18T07:04:36;102616.50;;;-1.78;100.00
69766;BME280;57039;48.014;21.384;2022-12-18T07:05:40;102616.69;;;-1.72;100.00
69766;BME280;57039;48.014;21.384;2022-12-18T07:06:43;102619.28;;;-1.72;100.00
69766;BME280;57039;48.014;21.384;2022-12-18T07:07:46;102620.81;;;-1.77;100.00
69766;BME280;57039;48.014;21.384;2022-12-18T07:08:50;102625.09;;;-1.78;100.00
69766;BME280;57039;48.014;21.384;2022-12-18T07:09:53;102633.59;;;-1.80;100.00
69766;BME280;57039;48.014;21.384;2022-12-18T07:10:56;102638.03;;;-1.76;100.00
69766;BME280;57039;48.014;21.384;2022-12-18T07:11:59;102637.28;;;-1.72;100.00
69766;BME280;57039;48.014;21.384;2022-12-18T07:13:02;102644.03;;;-1.76;100.00
69766;BME280;57039;48.014;21.384;2022-12-18T07:14:04;102640.59;;;-1.76;100.00
69766;BME280;57039;48.014;21.384;2022-12-18T07:15:07;102641.50;;;-1.74;100.00
69766;BME280;57039;48.014;21.384;2022-12-18T07:16:13;102649.12;;;-1.77;100.00
69766;BME280;57039;48.014;21.384;2022-12-18T07:17:23;102653.41;;;-1.78;100.00
69766;BME280;57039;48.014;21.384;2022-12-18T07:18:26;102653.50;;;-1.75;100.00
69766;BME280;57039;48.014;21.384;2022-12-18T07:19:29;102656.25;;;-1.69;100.00
69766;BME280;57039;48.014;21.384;2022-12-18T07:20:34;102653.72;;;-1.67;100.00
69766;BME280;57039;48.014;21.384;2022-12-18T07:21:37;102657.97;;;-1.68;100.00
69766;BME280;57039;48.014;21.384;2022-12-18T07:22:40;102666.53;;;-1.69;100.00
69766;BME280;57039;48.014;21.384;2022-12-18T07:23:43;102667.28;;;-1.73;100.00
69766;BME280;57039;48.014;21.384;2022-12-18T07:24:46;102661.28;;;-1.73;100.00
69766;BME280;57039;48.014;21.384;2022-12-18T07:25:49;102663.78;;;-1.75;100.00
69766;BME280;57039;48.014;21.384;2022-12-18T07:26:52;102661.97;;;-1.77;100.00
69766;BME280;57039;48.014;21.384;2022-12-18T07:27:55;102663.78;;;-1.75;100.00
69766;BME280;57039;48.014;21.384;2022-12-18T07:28:58;102668.84;;;-1.78;100.00
69766;BME280;57039;48.014;21.384;2022-12-18T07:30:02;102672.38;;;-1.74;100.00
69766;BME280;57039;48.014;21.384;2022-12-18T07:31:07;102669.69;;;-1.77;100.00
69766;BME280;57039;48.014;21.384;2022-12-18T07:32:11;102669.66;;;-1.79;100.00
69766;BME280;57039;48.014;21.384;2022-12-18T07:33:15;102685.00;;;-1.82;100.00
69766;BME280;57039;48.014;21.384;2022-12-18T07:34:18;102677.97;;;-1.88;100.00
69766;BME280;57039;48.014;21.384;2022-12-18T07:35:20;102679.72;;;-1.87;100.00
69766;BME280;57039;48.014;21.384;2022-12-18T07:36:26;102680.47;;;-1.89;100.00
69766;BME280;57039;48.014;21.384;2022-12-18T07:37:29;102688.47;;;-1.80;100.00
69766;BME280;57039;48.014;21.384;2022-12-18T07:38:33;102688.63;;;-1.75;100.00
69766;BME280;57039;48.014;21.384;2022-12-18T07:39:36;102696.47;;;-1.71;100.00
69766;BME280;57039;48.014;21.384;2022-12-18T07:40:39;102699.25;;;-1.65;100.00
69766;BME280;57039;48.014;21.384;2022-12-18T07:41:42;102696.88;;;-1.58;100.00
69766;BME280;57039;48.014;21.384;2022-12-18T07:42:50;102697.16;;;-1.49;100.00
69766;BME280;57039;48.014;21.384;2022-12-18T07:43:54;102698.03;;;-1.49;100.00
69766;BME280;57039;48.014;21.384;2022-12-18T07:44:57;102699.84;;;-1.45;100.00
69766;BME280;57039;48.014;21.384;2022-12-18T07:46:01;102706.06;;;-1.38;100.00
69766;BME280;57039;48.014;21.384;2022-12-18T07:47:05;102692.28;;;-1.40;100.00
69766;BME280;57039;48.014;21.384;2022-12-18T07:48:13;102691.41;;;-1.41;100.00
69766;BME280;57039;48.014;21.384;2022-12-18T07:49:16;102694.84;;;-1.40;100.00
69766;BME280;57039;48.014;21.384;2022-12-18T07:50:19;102700.19;;;-1.34;100.00
69766;BME280;57039;48.014;21.384;2022-12-18T07:51:22;102700.97;;;-1.36;100.00
69766;BME280;57039;48.014;21.384;2022-12-18T07:52:25;102701.00;;;-1.35;100.00
69766;BME280;57039;48.014;21.384;2022-12-18T07:53:29;102702.75;;;-1.34;100.00
69766;BME280;57039;48.014;21.384;2022-12-18T07:54:32;102701.84;;;-1.36;100.00
69766;BME280;57039;48.014;21.384;2022-12-18T07:55:35;102704.50;;;-1.33;100.00
69766;BME280;57039;48.014;21.384;2022-12-18T07:56:59;102704.31;;;-1.39;100.00
69766;BME280;57039;48.014;21.384;2022-12-18T07:58:03;102694.59;;;-1.49;100.00
69766;BME280;57039;48.014;21.384;2022-12-18T07:59:06;102710.16;;;-1.45;100.00
69766;BME280;57039;48.014;21.384;2022-12-18T08:00:10;102712.41;;;-1.55;100.00
69766;BME280;57039;48.014;21.384;2022-12-18T08:01:13;102701.22;;;-1.56;100.00
69766;BME280;57039;48.014;21.384;2022-12-18T08:02:16;102705.50;;;-1.56;100.00
69766;BME280;57039;48.014;21.384;2022-12-18T08:03:20;102703.00;;;-1.55;100.00
69766;BME280;57039;48.014;21.384;2022-12-18T08:04:24;102708.16;;;-1.53;100.00
69766;BME280;57039;48.014;21.384;2022-12-18T08:05:27;102704.78;;;-1.52;100.00
69766;BME280;57039;48.014;21.384;2022-12-18T08:06:30;102700.34;;;-1.56;100.00
69766;BME280;57039;48.014;21.384;2022-12-18T08:07:40;102709.94;;;-1.52;100.00
69766;BME280;57039;48.014;21.384;2022-12-18T08:08:43;102712.34;;;-1.57;100.00
69766;BME280;57039;48.014;21.384;2022-12-18T08:09:46;102714.25;;;-1.51;100.00
69766;BME280;57039;48.014;21.384;2022-12-18T08:10:49;102709.22;;;-1.47;100.00
69766;BME280;57039;48.014;21.384;2022-12-18T08:11:51;102711.00;;;-1.46;100.00
69766;BME280;57039;48.014;21.384;2022-12-18T08:12:55;102712.53;;;-1.51;100.00
69766;BME280;57039;48.014;21.384;2022-12-18T08:14:05;102714.59;;;-1.41;100.00
69766;BME280;57039;48.014;21.384;2022-12-18T08:15:08;102720.53;;;-1.42;100.00
69766;BME280;57039;48.014;21.384;2022-12-18T08:16:11;102725.59;;;-1.45;100.00
69766;BME280;57039;48.014;21.384;2022-12-18T08:17:19;102725.84;;;-1.37;100.00
69766;BME280;57039;48.014;21.384;2022-12-18T08:18:23;102725.00;;;-1.36;100.00
69766;BME280;57039;48.014;21.384;2022-12-18T08:19:26;102723.19;;;-1.40;100.00
69766;BME280;57039;48.014;21.384;2022-12-18T08:20:29;102728.50;;;-1.34;100.00
69766;BME280;57039;48.014;21.384;2022-12-18T08:21:32;102725.78;;;-1.39;100.00
69766;BME280;57039;48.014;21.384;2022-12-18T08:22:35;102728.50;;;-1.34;100.00
69766;BME280;57039;48.014;21.384;2022-12-18T08:23:42;102725.69;;;-1.42;100.00
69766;BME280;57039;48.014;21.384;2022-12-18T08:24:45;102734.53;;;-1.33;100.00
69766;BME280;57039;48.014;21.384;2022-12-18T08:25:48;102735.22;;;-1.39;100.00
69766;BME280;57039;48.014;21.384;2022-12-18T08:26:50;102729.41;;;-1.32;100.00
69766;BME280;57039;48.014;21.384;2022-12-18T08:28:13;102735.37;;;-1.33;100.00
69766;BME280;57039;48.014;21.384;2022-12-18T08:29:18;102733.75;;;-1.31;100.00
69766;BME280;57039;48.014;21.384;2022-12-18T08:30:23;102735.37;;;-1.33;100.00
69766;BME280;57039;48.014;21.384;2022-12-18T08:31:27;102741.50;;;-1.29;100.00
69766;BME280;57039;48.014;21.384;2022-12-18T08:32:30;102740.59;;;-1.31;100.00
69766;BME280;57039;48.014;21.384;2022-12-18T08:33:36;102745.66;;;-1.34;100.00
69766;BME280;57039;48.014;21.384;2022-12-18T08:34:40;102744.06;;;-1.29;100.00
69766;BME280;57039;48.014;21.384;2022-12-18T08:35:43;102747.66;;;-1.24;100.00
69766;BME280;57039;48.014;21.384;2022-12-18T08:36:48;102750.28;;;-1.23;100.00
69766;BME280;57039;48.014;21.384;2022-12-18T08:37:50;102745.97;;;-1.24;100.00
69766;BME280;57039;48.014;21.384;2022-12-18T08:38:54;102733.06;;;-1.25;100.00
69766;BME280;57039;48.014;21.384;2022-12-18T08:39:57;102744.50;;;-1.16;100.00
69766;BME280;57039;48.014;21.384;2022-12-18T08:41:00;102753.31;;;-1.07;100.00
69766;BME280;57039;48.014;21.384;2022-12-18T08:42:03;102745.59;;;-1.07;100.00
69766;BME280;57039;48.014;21.384;2022-12-18T08:43:24;102753.16;;;-1.13;100.00
69766;BME280;57039;48.014;21.384;2022-12-18T08:44:46;102750.28;;;-1.23;100.00
69766;BME280;57039;48.014;21.384;2022-12-18T08:45:49;102750.41;;;-1.20;100.00
69766;BME280;57039;48.014;21.384;2022-12-18T08:46:52;102757.22;;;-1.20;100.00
69766;BME280;57039;48.014;21.384;2022-12-18T08:47:55;102751.28;;;-1.18;100.00
69766;BME280;57039;48.014;21.384;2022-12-18T08:48:58;102756.34;;;-1.21;100.00
69766;BME280;57039;48.014;21.384;2022-12-18T08:50:01;102753.16;;;-1.13;100.00
69766;BME280;57039;48.014;21.384;2022-12-18T08:51:05;102754.78;;;-1.16;100.00
69766;BME280;57039;48.014;21.384;2022-12-18T08:52:08;102758.22;;;-1.17;100.00
69766;BME280;57039;48.014;21.384;2022-12-18T08:53:11;102764.25;;;-1.15;100.00
69766;BME280;57039;48.014;21.384;2022-12-18T08:54:14;102757.41;;;-1.14;99.84
69766;BME280;57039;48.014;21.384;2022-12-18T08:55:17;102756.59;;;-1.13;99.76
69766;BME280;57039;48.014;21.384;2022-12-18T08:56:22;102756.44;;;-1.18;99.94
69766;BME280;57039;48.014;21.384;2022-12-18T08:57:25;102760.03;;;-1.12;100.00
69766;BME280;57039;48.014;21.384;2022-12-18T08:58:29;102760.97;;;-1.10;99.86
69766;BME280;57039;48.014;21.384;2022-12-18T08:59:32;102761.09;;;-1.06;100.00
69766;BME280;57039;48.014;21.384;2022-12-18T09:00:34;102759.44;;;-1.04;100.00
69766;BME280;57039;48.014;21.384;2022-12-18T09:01:38;102769.03;;;-0.98;100.00
69766;BME280;57039;48.014;21.384;2022-12-18T09:02:41;102769.03;;;-0.98;100.00
69766;BME280;57039;48.014;21.384;2022-12-18T09:03:44;102758.84;;;-0.94;100.00
69766;BME280;57039;48.014;21.384;2022-12-18T09:04:47;102761.31;;;-0.98;100.00
69766;BME280;57039;48.014;21.384;2022-12-18T09:05:58;102758.31;;;-1.12;99.11
69766;BME280;57039;48.014;21.384;2022-12-18T09:07:02;102766.03;;;-1.13;99.47
69766;BME280;57039;48.014;21.384;2022-12-18T09:08:05;102765.37;;;-1.06;99.83
69766;BME280;57039;48.014;21.384;2022-12-18T09:09:09;102773.94;;;-1.07;99.46
69766;BME280;57039;48.014;21.384;2022-12-18T09:10:12;102766.22;;;-1.06;99.36
69766;BME280;57039;48.014;21.384;2022-12-18T09:11:20;102765.22;;;-1.11;99.09
69766;BME280;57039;48.014;21.384;2022-12-18T09:12:23;102769.69;;;-1.05;99.14
69766;BME280;57039;48.014;21.384;2022-12-18T09:13:26;102769.03;;;-0.98;99.47
69766;BME280;57039;48.014;21.384;2022-12-18T09:14:29;102770.88;;;-0.94;99.74
69766;BME280;57039;48.014;21.384;2022-12-18T09:15:32;102770.97;;;-0.91;99.62
69766;BME280;57039;48.014;21.384;2022-12-18T09:16:35;102773.41;;;-0.96;99.51
69766;BME280;57039;48.014;21.384;2022-12-18T09:17:38;102774.47;;;-0.89;99.81
69766;BME280;57039;48.014;21.384;2022-12-18T09:18:41;102772.87;;;-0.84;100.00
69766;BME280;57039;48.014;21.384;2022-12-18T09:19:45;102778.25;;;-0.76;99.77
69766;BME280;57039;48.014;21.384;2022-12-18T09:20:48;102777.59;;;-0.69;99.83
69766;BME280;57039;48.014;21.384;2022-12-18T09:21:52;102784.69;;;-0.60;99.64
69766;BME280;57039;48.014;21.384;2022-12-18T09:22:56;102783.97;;;-0.56;99.37
69766;BME280;57039;48.014;21.384;2022-12-18T09:23:59;102783.03;;;-0.60;99.06
69766;BME280;57039;48.014;21.384;2022-12-18T09:25:01;102788.97;;;-0.62;98.39
69766;BME280;57039;48.014;21.384;2022-12-18T09:26:04;102782.03;;;-0.63;98.17
69766;BME280;57039;48.014;21.384;2022-12-18T09:27:07;102787.97;;;-0.66;98.25
69766;BME280;57039;48.014;21.384;2022-12-18T09:28:15;102799.97;;;-0.68;97.82
69766;BME280;57039;48.014;21.384;2022-12-18T09:29:19;102795.84;;;-0.61;97.61
69766;BME280;57039;48.014;21.384;2022-12-18T09:30:22;102797.47;;;-0.65;96.98